Dauntless Aviation
Airports Asia Macau
XZM

Macau Ferry Pier

Macau, MACAU

Airport Info
Suggest Updated Information for this Airport

Location

Latitude / Longitude: 22°11'49"N / 113°33'32"E
  22°11.826'N / 113°33.534'E
  22.1971 / 113.5589
Satellite photo at:
Airport distance calculator
From:
Weather Reports

METAR

VMMC
3.1nm SE
VMMC 181430Z 35020KT CAVOK 21/14 Q1018 NOSIG
VHHH
21.1nm NE
VHHH 181430Z 04008KT 010V080 9999 FEW030 SCT035 22/12 Q1019 NOSIG
ZGSZ
29.4nm N
ZGSZ 181400Z 04007MPS CAVOK 20/12 Q1019 NOSIG

TAF

VMMC
3.1nm SE
TAF VMMC 181100Z 1812/1918 35015KT 9000 FEW035 TEMPO 1812/1824 36018G28KT
VHHH
21.1nm NE
TAF VHHH 181100Z 1812/1918 36010KT 9000 FEW030 TX25/1812Z TX24/1906Z TN16/1822Z TEMPO 1812/1821 36015G25KT BECMG 1912/1914 06010KT
ZGSZ
29.4nm N
TAF ZGSZ 180907Z 1812/1912 01006MPS 6000 FEW040 TX24/1813Z TN16/1822Z
Safelog

 

Dauntless Aviation

© 2007-2019 Dauntless Aviation, all rights reserved
Information provided via PilotNav comes from a variety of official and unofficial data sources. As errors are possible, do not use PilotNav for primary flight planning purposes. Verify any information that you receive via PilotNav with current and canonical charts and other official documents. The material in this database is subject to database copyrights held by Dauntless Aviation and may not be copied without the express permission of Dauntless Aviation - licenses for use of part of all of this data are available for purchase; enquire via the Dauntless Aviation helpdesk. A number of mechanisms and markers exist in the database to protect against and identify infringement / copyright. Automated queries against this website are stictly prohibited, and all activity is logged and analyzed.